Time;durP1;ratioP1;P1;durP2;ratioP2;P2;SDS_P1;SDS_P2;PMS_P1;PMS_P2;Temp;Humidity;BMP_temperature;BMP_pressure;BME280_temperature;BME280_humidity;BME280_pressure;Samples;Min_cycle;Max_cycle;Signal;HPM_P1;HPM_P2
2021/05/23 00:01:33;;;;;;;6.20;2.40;;;;;;;9.59;69.97;92938.75;1800192;79;21038;-80
2021/05/23 00:04:00;;;;;;;14.47;5.75;;;;;;;9.60;70.00;92947.08;1800084;79;21050;-77
2021/05/23 00:06:26;;;;;;;44.98;14.33;;;;;;;9.59;70.13;92941.47;1798727;79;21078;-78
2021/05/23 00:08:53;;;;;;;13.88;5.10;;;;;;;9.59;70.27;92945.55;1799094;78;21034;-79
2021/05/23 00:11:20;;;;;;;4.08;2.72;;;;;;;9.58;70.13;92942.63;1799115;79;21576;-78
2021/05/23 00:13:48;;;;;;;3.75;2.27;;;;;;;9.54;70.13;92950.61;1798640;79;21129;-77
2021/05/23 00:16:21;;;;;;;2.42;2.22;;;;;;;9.48;70.17;92955.70;1799351;79;22240;-78
2021/05/23 00:18:53;;;;;;;3.02;1.65;;;;;;;9.43;70.29;92954.76;1800361;79;21833;-80
2021/05/23 00:21:23;;;;;;;3.72;2.25;;;;;;;9.36;70.42;92952.86;1800328;79;20935;-78
2021/05/23 00:23:49;;;;;;;7.70;4.62;;;;;;;9.32;70.50;92950.75;1800648;79;20978;-77
2021/05/23 00:26:15;;;;;;;6.60;3.80;;;;;;;9.22;71.00;92954.33;1799486;79;21161;-77
2021/05/23 00:28:42;;;;;;;28.92;14.33;;;;;;;9.08;71.42;92958.48;1799725;79;21070;-76
2021/05/23 00:31:09;;;;;;;11.48;6.05;;;;;;;8.91;72.00;92956.03;1800279;79;21120;-77
2021/05/23 00:33:35;;;;;;;8.15;4.17;;;;;;;8.78;72.37;92954.36;1799170;79;21117;-78
2021/05/23 00:36:03;;;;;;;3.45;2.87;;;;;;;8.67;72.45;92956.34;1799552;79;21062;-80
2021/05/23 00:38:30;;;;;;;5.30;3.12;;;;;;;8.54;73.29;92957.94;1799460;79;21703;-75
2021/05/23 00:40:56;;;;;;;8.08;3.83;;;;;;;8.44;73.84;92965.72;1799357;79;21101;-78
2021/05/23 00:43:23;;;;;;;8.43;5.62;;;;;;;8.33;74.44;92961.47;1800343;79;21094;-80
2021/05/23 00:45:50;;;;;;;7.40;3.75;;;;;;;8.14;75.17;92967.52;1800463;78;21117;-76
2021/05/23 00:48:17;;;;;;;3.02;2.40;;;;;;;8.03;75.67;92965.41;1799882;79;21069;-77
2021/05/23 00:50:46;;;;;;;5.25;2.85;;;;;;;8.05;76.18;92968.51;1745168;82;21085;-77
2021/05/23 00:53:13;;;;;;;3.37;2.47;;;;;;;8.10;76.40;92982.23;1820857;77;21057;-75
2021/05/23 00:55:40;;;;;;;3.92;3.05;;;;;;;8.12;76.18;92974.47;1847857;77;21677;-78
2021/05/23 00:58:07;;;;;;;3.50;2.45;;;;;;;8.11;76.08;92969.64;1848501;77;21070;-77
2021/05/23 01:00:46;;;;;;;2.65;2.45;;;;;;;8.09;76.20;92979.34;1856928;77;21411;-79
2021/05/23 01:03:31;;;;;;;4.37;2.15;;;;;;;8.03;76.25;92987.84;1842540;77;21101;-80
2021/05/23 01:08:37;;;;;;;3.10;1.90;;;;;;;7.94;76.72;92995.59;1805054;79;21159;-77
2021/05/23 01:11:18;;;;;;;4.10;2.17;;;;;;;7.91;76.93;92995.59;1806288;79;21671;-76
2021/05/23 01:13:59;;;;;;;6.58;2.10;;;;;;;7.88;77.23;92989.02;1770391;79;21603;-77
2021/05/23 01:16:32;;;;;;;2.87;2.25;;;;;;;7.86;76.97;92981.87;1805618;79;21687;-77
2021/05/23 01:19:24;;;;;;;2.85;2.58;;;;;;;7.82;77.13;92988.43;1795522;78;21497;-78
2021/05/23 01:22:14;;;;;;;5.17;2.50;;;;;;;7.76;77.28;92996.18;1819348;77;21079;-77
2021/05/23 01:24:44;;;;;;;4.65;2.40;;;;;;;7.67;77.67;92995.78;1858092;77;21053;-78
2021/05/23 01:27:12;;;;;;;5.20;2.65;;;;;;;7.59;77.78;93001.00;1840286;77;21575;-75
2021/05/23 01:29:40;;;;;;;2.50;2.00;;;;;;;7.55;78.10;93007.17;1776023;77;21203;-78
2021/05/23 01:32:07;;;;;;;3.65;2.05;;;;;;;7.51;78.34;93007.75;1820416;78;21073;-79
2021/05/23 01:34:33;;;;;;;3.60;2.62;;;;;;;7.44;78.72;93005.04;1816393;77;22270;-76
2021/05/23 01:37:00;;;;;;;4.10;2.87;;;;;;;7.39;79.07;93001.95;1829008;76;20974;-76
2021/05/23 01:39:26;;;;;;;3.70;2.12;;;;;;;7.32;79.39;93009.47;1810251;77;21060;-78
2021/05/23 01:41:52;;;;;;;3.30;2.60;;;;;;;7.27;79.78;93001.16;1843139;77;21698;-77
2021/05/23 01:44:19;;;;;;;4.40;2.80;;;;;;;7.22;79.95;93004.81;1879204;76;21067;-76
2021/05/23 01:46:46;;;;;;;8.08;3.20;;;;;;;7.13;80.07;92995.72;1859420;75;21084;-77
2021/05/23 01:49:12;;;;;;;8.58;3.08;;;;;;;7.07;80.19;93001.33;1864799;76;21031;-78
2021/05/23 01:51:39;;;;;;;4.80;2.40;;;;;;;7.02;80.17;92999.75;1823712;78;21053;-78
2021/05/23 01:54:06;;;;;;;2.40;2.00;;;;;;;6.96;80.31;92991.83;1810320;79;21618;-77
2021/05/23 01:56:32;;;;;;;2.85;1.90;;;;;;;6.92;80.88;92999.16;1827973;77;21041;-79
2021/05/23 01:58:58;;;;;;;1.98;1.62;;;;;;;6.89;81.36;92992.39;1823552;78;21136;-79
2021/05/23 02:01:25;;;;;;;1.80;1.70;;;;;;;6.86;81.56;93002.02;1847063;77;21093;-78
2021/05/23 02:03:57;;;;;;;4.10;1.85;;;;;;;6.83;81.89;92996.61;1846704;77;21766;-76
2021/05/23 02:06:24;;;;;;;6.30;4.22;;;;;;;6.84;81.81;93003.55;1776388;80;21066;-77
2021/05/23 02:08:51;;;;;;;7.35;3.87;;;;;;;6.88;81.74;93004.34;1821670;77;21100;-76
2021/05/23 02:11:18;;;;;;;4.53;2.77;;;;;;;6.89;81.78;93002.63;1828445;78;21550;-76
2021/05/23 02:13:46;;;;;;;5.65;2.25;;;;;;;6.89;81.87;93001.27;1823102;78;21037;-78
2021/05/23 02:16:13;;;;;;;4.47;2.08;;;;;;;6.88;81.76;92998.34;1741322;80;21074;-75
2021/05/23 02:18:40;;;;;;;2.52;2.33;;;;;;;6.86;81.74;92995.27;1795323;79;21092;-76
2021/05/23 02:21:07;;;;;;;3.35;1.92;;;;;;;6.79;81.60;93002.00;1793234;79;21081;-79
2021/05/23 02:23:33;;;;;;;1.90;1.75;;;;;;;6.72;81.72;93001.97;1788878;79;21484;-77
2021/05/23 02:26:00;;;;;;;3.35;2.00;;;;;;;6.65;82.09;93010.05;1788333;80;20975;-77
2021/05/23 02:28:26;;;;;;;2.08;1.92;;;;;;;6.64;82.26;93013.91;1795617;79;21069;-76
2021/05/23 02:30:55;;;;;;;3.60;1.75;;;;;;;6.61;82.08;93015.43;1808793;79;21117;-78
2021/05/23 02:33:23;;;;;;;2.40;2.20;;;;;;;6.63;81.95;93019.13;1778839;80;21137;-78
2021/05/23 02:35:53;;;;;;;2.95;2.20;;;;;;;6.62;81.90;93021.60;1778310;80;21078;-79
2021/05/23 02:38:20;;;;;;;1.87;1.72;;;;;;;6.53;81.79;93017.33;1801117;78;21433;-79
2021/05/23 02:40:47;;;;;;;2.85;1.87;;;;;;;6.44;82.01;93017.48;1796909;79;21085;-79
2021/05/23 02:43:14;;;;;;;1.50;1.40;;;;;;;6.40;82.26;93029.63;1777286;80;21121;-78
2021/05/23 02:45:42;;;;;;;1.80;1.70;;;;;;;6.37;82.12;93031.72;1776415;80;21053;-77
2021/05/23 02:48:09;;;;;;;2.17;1.40;;;;;;;6.25;82.34;93023.36;1778638;80;21117;-79
2021/05/23 02:50:39;;;;;;;1.85;1.50;;;;;;;6.18;82.83;93029.30;1778235;80;21141;-79
2021/05/23 02:53:06;;;;;;;2.92;1.37;;;;;;;6.18;83.09;93029.30;1778295;80;21557;-75
2021/05/23 02:55:37;;;;;;;1.65;1.55;;;;;;;6.13;83.20;93033.13;1778366;80;21085;-76
2021/05/23 02:58:06;;;;;;;3.12;1.55;;;;;;;6.11;83.09;93034.65;1782386;78;21504;-77
2021/05/23 03:00:33;;;;;;;1.87;1.55;;;;;;;6.05;83.04;93043.08;1811648;78;21624;-76
2021/05/23 03:03:00;;;;;;;2.20;1.98;;;;;;;5.94;83.47;93042.80;1781538;79;21081;-78
2021/05/23 03:05:26;;;;;;;1.57;1.45;;;;;;;5.91;83.85;93041.63;1800755;79;21381;-77
2021/05/23 03:07:54;;;;;;;5.62;2.55;;;;;;;5.92;83.91;93044.54;1797540;79;21153;-78
2021/05/23 03:10:32;;;;;;;1.60;1.47;;;;;;;5.97;83.79;93049.58;1778190;80;21073;-78
2021/05/23 03:13:00;;;;;;;1.45;1.35;;;;;;;6.00;83.60;93048.84;1778847;80;21148;-77
2021/05/23 03:15:27;;;;;;;2.70;1.45;;;;;;;5.99;83.65;93053.27;1777568;80;21090;-77
2021/05/23 03:17:55;;;;;;;3.50;1.87;;;;;;;5.99;83.54;93064.84;1778037;80;21694;-78
2021/05/23 03:20:23;;;;;;;1.90;1.20;;;;;;;5.99;83.46;93064.06;1778057;80;21109;-78
2021/05/23 03:22:52;;;;;;;1.52;1.40;;;;;;;6.02;83.51;93061.40;1778919;80;21074;-76
2021/05/23 03:25:19;;;;;;;4.00;1.60;;;;;;;6.05;83.38;93067.95;1754147;80;21063;-77
2021/05/23 03:27:45;;;;;;;2.20;2.00;;;;;;;6.08;83.48;93063.93;1777681;80;21654;-77
2021/05/23 03:30:16;;;;;;;3.90;3.17;;;;;;;6.11;83.58;93072.44;1777832;80;21113;-76
2021/05/23 03:32:43;;;;;;;2.95;2.40;;;;;;;6.13;83.57;93077.67;1776673;79;21419;-76
2021/05/23 03:35:10;;;;;;;5.62;2.22;;;;;;;6.17;83.39;93077.12;1778683;80;21695;-79
2021/05/23 03:37:37;;;;;;;6.15;2.30;;;;;;;6.21;83.45;93081.97;1777882;79;21074;-78
2021/05/23 03:40:05;;;;;;;2.92;2.27;;;;;;;6.27;83.47;93076.98;1777598;80;21066;-75
2021/05/23 03:42:31;;;;;;;2.92;1.65;;;;;;;6.35;83.37;93079.15;1776690;80;21105;-77
2021/05/23 03:44:57;;;;;;;2.80;2.33;;;;;;;6.42;83.28;93087.30;1777660;80;21082;-77
2021/05/23 03:47:23;;;;;;;5.10;3.50;;;;;;;6.50;82.88;93099.11;1776890;80;21070;-77
2021/05/23 03:49:50;;;;;;;5.15;2.98;;;;;;;6.58;82.62;93103.98;1777487;80;22320;-77
2021/05/23 03:52:20;;;;;;;6.67;3.20;;;;;;;6.72;82.81;93106.77;1779108;77;21113;-79
2021/05/23 03:54:47;;;;;;;4.28;3.17;;;;;;;6.90;82.68;93110.16;1811050;79;21096;-75
2021/05/23 03:57:14;;;;;;;7.10;3.25;;;;;;;7.06;82.15;93107.90;1778362;80;21136;-78
2021/05/23 03:59:40;;;;;;;5.33;3.58;;;;;;;7.17;81.36;93109.30;1823464;75;21047;-79
2021/05/23 04:02:07;;;;;;;3.08;2.60;;;;;;;7.25;80.93;93107.59;1872244;75;22118;-78
2021/05/23 04:05:15;;;;;;;3.40;2.85;;;;;;;7.29;80.21;93112.42;1839151;76;21054;-76
2021/05/23 04:07:04;;;;;;;4.78;3.12;;;;;;;7.32;80.09;93108.20;1831832;76;21060;-76
2021/05/23 04:09:31;;;;;;;2.92;2.50;;;;;;;7.38;79.76;93104.55;1837386;76;21066;-77
2021/05/23 04:11:58;;;;;;;3.10;1.82;;;;;;;7.47;79.46;93113.07;1828430;77;21072;-78
2021/05/23 04:14:25;;;;;;;2.47;1.67;;;;;;;7.58;79.45;93107.11;1799148;78;21671;-76
2021/05/23 04:16:53;;;;;;;1.77;1.67;;;;;;;7.74;79.33;93115.64;1765319;78;21088;-77
2021/05/23 04:19:19;;;;;;;1.98;1.57;;;;;;;7.91;79.06;93111.42;1833257;78;21712;-76
2021/05/23 04:21:46;;;;;;;3.02;1.42;;;;;;;8.09;79.21;93112.03;1821867;78;21137;-77
2021/05/23 04:24:12;;;;;;;2.20;1.17;;;;;;;8.22;77.92;93113.95;1809880;78;21030;-76
2021/05/23 04:26:39;;;;;;;1.62;1.52;;;;;;;8.36;77.32;93105.64;1805427;79;21797;-78
2021/05/23 04:29:05;;;;;;;1.70;1.50;;;;;;;8.47;76.91;93113.20;1805443;79;21081;-79
2021/05/23 04:31:32;;;;;;;14.05;10.48;;;;;;;8.56;76.68;93104.09;1803941;79;21061;-80
2021/05/23 04:33:59;;;;;;;9.80;6.70;;;;;;;8.60;76.69;93104.08;1809526;79;21089;-76
2021/05/23 04:36:25;;;;;;;5.72;3.75;;;;;;;8.67;76.56;93105.42;1811057;79;21112;-77
2021/05/23 04:38:52;;;;;;;5.17;2.70;;;;;;;8.74;76.40;93110.25;1811268;79;21305;-77
2021/05/23 04:41:19;;;;;;;3.30;2.45;;;;;;;8.86;76.19;93117.78;1810375;79;21069;-77
2021/05/23 04:43:45;;;;;;;3.52;2.30;;;;;;;9.02;76.17;93116.76;1811335;79;21089;-79
2021/05/23 04:46:11;;;;;;;3.30;2.30;;;;;;;9.19;75.87;93130.09;1812113;79;21567;-77
2021/05/23 04:48:38;;;;;;;1.52;1.40;;;;;;;9.31;75.19;93127.52;1810784;79;21140;-77
2021/05/23 04:51:04;;;;;;;6.47;4.37;;;;;;;9.43;73.81;93123.78;1810389;79;21391;-76
2021/05/23 04:53:31;;;;;;;6.87;4.78;;;;;;;9.52;74.12;93117.17;1810416;78;21493;-78
2021/05/23 04:55:58;;;;;;;7.42;5.17;;;;;;;9.69;73.24;93124.44;1802511;79;21107;-77
2021/05/23 04:58:24;;;;;;;7.72;4.75;;;;;;;9.85;72.21;93116.58;1760108;80;21126;-78
2021/05/23 05:00:51;;;;;;;6.92;4.35;;;;;;;10.07;72.07;93122.65;1741670;80;21114;-76
2021/05/23 05:03:17;;;;;;;7.72;4.80;;;;;;;10.41;71.71;93135.05;1777899;79;21078;-78
2021/05/23 05:05:43;;;;;;;7.20;5.33;;;;;;;10.76;70.68;93135.94;1788673;79;21129;-78
2021/05/23 05:08:10;;;;;;;5.22;3.50;;;;;;;11.18;69.75;93136.09;1785391;79;21129;-79
2021/05/23 05:10:36;;;;;;;6.28;3.47;;;;;;;11.64;68.03;93133.41;1793899;79;21180;-76
2021/05/23 05:13:03;;;;;;;4.37;2.90;;;;;;;11.97;67.34;93135.75;1792861;78;21157;-77
2021/05/23 05:15:31;;;;;;;7.03;3.87;;;;;;;12.27;65.61;93138.44;1792642;78;21628;-77
2021/05/23 05:17:58;;;;;;;12.13;5.12;;;;;;;12.57;64.32;93134.85;1792890;78;21125;-79
2021/05/23 05:20:27;;;;;;;12.18;6.72;;;;;;;12.97;63.72;93130.09;1793533;79;21675;-78
2021/05/23 05:22:56;;;;;;;11.83;6.70;;;;;;;13.49;62.24;93136.38;1792195;79;21153;-79
2021/05/23 05:25:23;;;;;;;6.62;3.90;;;;;;;14.10;61.08;93122.22;1793685;79;21121;-78
2021/05/23 05:27:50;;;;;;;6.53;4.28;;;;;;;14.80;58.77;93127.27;1794013;78;21074;-78
2021/05/23 05:30:18;;;;;;;6.65;4.42;;;;;;;15.41;57.49;93128.44;1793264;79;21113;-79
2021/05/23 05:32:44;;;;;;;7.53;5.45;;;;;;;15.73;55.82;93134.45;1788307;79;21592;-77
2021/05/23 05:35:11;;;;;;;6.87;4.72;;;;;;;15.90;54.78;93124.77;1786006;79;21660;-79
2021/05/23 05:37:38;;;;;;;4.87;3.98;;;;;;;15.88;54.55;93134.05;1812366;78;21097;-77
2021/05/23 05:40:06;;;;;;;3.25;2.40;;;;;;;15.88;54.55;93136.79;1825525;78;22241;-78
2021/05/23 05:42:32;;;;;;;2.52;2.33;;;;;;;15.92;53.51;93133.34;1825476;78;21132;-77
2021/05/23 05:44:59;;;;;;;1.65;1.55;;;;;;;16.11;51.46;93135.73;1825035;78;21065;-75
2021/05/23 05:47:26;;;;;;;2.98;1.55;;;;;;;16.37;50.88;93139.27;1824674;78;21076;-77
2021/05/23 05:49:53;;;;;;;1.62;1.20;;;;;;;16.61;50.23;93136.34;1826113;78;21701;-78
2021/05/23 05:52:20;;;;;;;1.62;1.07;;;;;;;16.92;48.98;93135.78;1811735;78;21390;-79
2021/05/23 05:54:46;;;;;;;1.32;1.17;;;;;;;17.24;48.39;93138.24;1810218;79;21133;-77
2021/05/23 05:57:13;;;;;;;2.80;0.93;;;;;;;17.52;46.72;93137.09;1791844;79;21079;-77
2021/05/23 05:59:39;;;;;;;3.37;1.72;;;;;;;17.52;46.17;93128.84;1781670;77;21057;-77
2021/05/23 06:02:06;;;;;;;1.50;1.00;;;;;;;17.47;46.63;93130.19;1807451;77;21650;-77
2021/05/23 06:04:34;;;;;;;3.50;2.27;;;;;;;17.55;46.51;93124.45;1809809;79;22049;-77
2021/05/23 06:07:01;;;;;;;2.52;2.33;;;;;;;17.66;46.57;93122.09;1809139;79;21102;-78
2021/05/23 06:09:27;;;;;;;2.83;1.30;;;;;;;17.98;46.30;93114.67;1788848;79;21351;-77
2021/05/23 06:11:53;;;;;;;1.45;1.27;;;;;;;18.28;45.13;93114.53;1782713;79;21121;-79
2021/05/23 06:14:21;;;;;;;2.02;1.00;;;;;;;18.46;43.81;93106.36;1805486;79;21081;-78
2021/05/23 06:16:48;;;;;;;2.15;1.20;;;;;;;18.47;43.89;93104.37;1808260;79;21136;-79
2021/05/23 06:19:14;;;;;;;0.93;0.93;;;;;;;18.50;43.76;93112.48;1807655;79;21113;-77
2021/05/23 06:21:41;;;;;;;2.80;1.10;;;;;;;18.58;43.92;93107.47;1785890;79;21064;-78
2021/05/23 06:24:10;;;;;;;1.45;1.22;;;;;;;18.80;43.17;93104.66;1777724;77;21333;-79
2021/05/23 06:26:37;;;;;;;2.30;1.10;;;;;;;19.00;42.08;93102.89;1797798;79;21158;-78
2021/05/23 06:29:04;;;;;;;3.05;1.10;;;;;;;19.22;40.07;93104.92;1761684;81;21077;-78
2021/05/23 06:31:32;;;;;;;2.08;1.50;;;;;;;19.43;38.83;93105.23;1803830;78;21059;-77
2021/05/23 06:33:58;;;;;;;1.27;1.10;;;;;;;19.56;38.02;93103.86;1806190;78;20973;-79
2021/05/23 06:36:25;;;;;;;1.15;1.05;;;;;;;19.76;37.54;93099.27;1809129;77;21069;-77
2021/05/23 06:38:52;;;;;;;1.05;0.95;;;;;;;19.90;37.64;93096.50;1816097;78;21030;-77
2021/05/23 06:41:18;;;;;;;2.02;0.95;;;;;;;19.88;37.49;93094.19;1801431;79;21565;-78
2021/05/23 06:43:45;;;;;;;5.05;2.55;;;;;;;19.99;36.08;93097.84;1821180;77;21730;-77
2021/05/23 06:46:12;;;;;;;4.92;3.52;;;;;;;20.04;36.01;93101.36;1805174;78;21098;-78
2021/05/23 06:48:39;;;;;;;0.90;0.90;;;;;;;20.01;36.77;93089.09;1793377;79;21618;-78
2021/05/23 06:51:05;;;;;;;3.72;1.75;;;;;;;19.96;35.69;93090.49;1801364;79;21093;-77
2021/05/23 06:53:33;;;;;;;1.32;1.10;;;;;;;19.99;35.40;93086.81;1804288;78;21320;-75
2021/05/23 06:56:00;;;;;;;1.62;0.90;;;;;;;20.00;34.78;93081.44;1740780;82;21169;-82
2021/05/23 06:58:26;;;;;;;1.45;1.00;;;;;;;19.83;35.12;93070.61;1783488;79;21033;-77
2021/05/23 07:00:54;;;;;;;1.40;0.90;;;;;;;19.77;36.01;93075.20;1828026;77;21092;-80
2021/05/23 07:03:22;;;;;;;0.70;0.70;;;;;;;19.93;36.93;93071.34;1827651;76;21058;-77
2021/05/23 07:05:49;;;;;;;2.35;0.65;;;;;;;20.23;36.78;93067.57;1781241;79;21620;-74
2021/05/23 07:08:18;;;;;;;1.65;0.90;;;;;;;20.44;36.52;93076.86;1782231;80;21433;-76
2021/05/23 07:10:45;;;;;;;2.12;0.85;;;;;;;20.55;35.47;93072.25;1782629;80;21055;-78
2021/05/23 07:13:12;;;;;;;2.37;0.70;;;;;;;20.52;34.49;93064.89;1782401;79;21117;-81
2021/05/23 07:15:41;;;;;;;1.42;0.82;;;;;;;20.28;32.17;93064.81;1782808;80;21063;-82
2021/05/23 07:18:08;;;;;;;1.75;1.12;;;;;;;19.91;35.15;93064.91;1782456;79;21211;-79
2021/05/23 07:20:38;;;;;;;1.27;0.62;;;;;;;19.73;35.40;93071.84;1782272;80;21074;-85
2021/05/23 07:23:04;;;;;;;3.37;0.78;;;;;;;19.67;34.77;93066.78;1781976;79;21734;-79
2021/05/23 07:25:33;;;;;;;0.75;0.68;;;;;;;19.54;35.03;93066.31;1805717;79;21085;-79
2021/05/23 07:28:00;;;;;;;10.95;1.20;;;;;;;19.41;35.39;93057.45;1804387;79;21114;-80
2021/05/23 07:30:27;;;;;;;2.40;0.70;;;;;;;19.19;35.68;93058.97;1792344;79;21114;-79
2021/05/23 07:32:53;;;;;;;1.17;0.60;;;;;;;18.98;34.39;93058.48;1762065;77;21146;-79
2021/05/23 07:35:19;;;;;;;1.10;0.47;;;;;;;18.81;35.68;93062.15;1850951;77;21296;-81
2021/05/23 07:37:46;;;;;;;0.93;0.90;;;;;;;18.73;34.85;93057.55;1811803;77;21044;-75
2021/05/23 07:40:13;;;;;;;0.85;0.70;;;;;;;18.59;35.12;93062.22;1803972;79;21892;-76
2021/05/23 07:42:39;;;;;;;0.80;0.50;;;;;;;18.38;36.06;93063.82;1804186;79;21076;-77
2021/05/23 07:45:07;;;;;;;11.22;1.40;;;;;;;18.23;37.57;93065.59;1799837;79;21131;-79
2021/05/23 07:47:33;;;;;;;2.37;0.72;;;;;;;18.07;37.48;93063.23;1773612;80;21326;-78
2021/05/23 07:50:03;;;;;;;0.78;0.62;;;;;;;17.94;36.51;93058.42;1770797;80;20943;-77
2021/05/23 07:52:29;;;;;;;0.98;0.60;;;;;;;17.90;37.74;93057.79;1846271;76;21605;-80
2021/05/23 07:54:59;;;;;;;1.30;0.90;;;;;;;17.87;36.61;93054.59;1852426;76;21081;-82
2021/05/23 07:57:26;;;;;;;0.98;0.80;;;;;;;18.04;37.74;93055.88;1844193;77;21308;-77
2021/05/23 07:59:52;;;;;;;0.72;0.45;;;;;;;18.36;36.14;93059.39;1845364;77;21043;-77
2021/05/23 08:02:19;;;;;;;0.50;0.45;;;;;;;18.53;35.34;93055.77;1860163;76;21119;-79
2021/05/23 08:04:45;;;;;;;0.72;0.57;;;;;;;18.65;35.06;93043.27;1849191;76;21023;-76
2021/05/23 08:07:12;;;;;;;0.93;0.62;;;;;;;18.76;36.52;93043.45;1844383;77;21095;-79
2021/05/23 08:09:39;;;;;;;2.87;0.60;;;;;;;18.90;34.58;93047.00;1850164;76;21079;-80
2021/05/23 08:12:07;;;;;;;0.68;0.60;;;;;;;18.89;35.52;93034.46;1862041;76;21388;-78
2021/05/23 08:14:35;;;;;;;1.52;0.78;;;;;;;18.99;37.48;93039.35;1845326;77;21126;-85
2021/05/23 08:17:02;;;;;;;1.27;1.17;;;;;;;19.21;36.08;93037.84;1846218;76;21068;-83
2021/05/23 08:19:29;;;;;;;0.25;0.25;;;;;;;19.42;35.85;93049.32;1799312;79;21599;-75
2021/05/23 08:21:55;;;;;;;0.30;0.30;;;;;;;19.46;34.53;93049.17;1816142;78;21063;-77
2021/05/23 08:24:22;;;;;;;0.20;0.20;;;;;;;19.40;33.50;93050.38;1831111;76;21048;-82
2021/05/23 08:26:48;;;;;;;1.25;0.65;;;;;;;19.34;34.74;93050.25;1855430;77;22046;-78
2021/05/23 08:29:16;;;;;;;0.60;0.37;;;;;;;19.37;33.40;93049.95;1846978;75;21063;-79
2021/05/23 08:31:43;;;;;;;1.57;0.55;;;;;;;19.46;34.38;93044.41;1857881;75;21436;-81
2021/05/23 08:34:09;;;;;;;1.92;1.00;;;;;;;19.59;32.99;93048.38;1863451;75;21080;-77
2021/05/23 08:36:35;;;;;;;2.25;2.05;;;;;;;19.44;33.43;93049.61;1860473;76;21340;-77
2021/05/23 08:39:03;;;;;;;4.62;1.47;;;;;;;19.23;34.02;93042.29;1846341;77;21056;-79
2021/05/23 08:41:29;;;;;;;0.68;0.65;;;;;;;18.97;35.05;93065.23;1846172;75;21091;-78
2021/05/23 08:43:55;;;;;;;3.15;1.40;;;;;;;18.67;35.17;93052.44;1858449;76;21663;-80
2021/05/23 08:46:22;;;;;;;3.67;1.62;;;;;;;18.53;36.57;93053.77;1855952;76;21094;-79
2021/05/23 08:48:49;;;;;;;4.35;2.70;;;;;;;18.45;36.70;93060.79;1846440;76;21107;-78
2021/05/23 08:51:16;;;;;;;1.72;1.57;;;;;;;18.30;36.80;93052.94;1846783;77;21087;-76
2021/05/23 08:53:43;;;;;;;1.15;1.05;;;;;;;18.18;37.67;93047.08;1865683;76;21068;-79
2021/05/23 08:56:11;;;;;;;1.02;0.85;;;;;;;18.14;37.34;93060.22;1864679;76;21445;-84
2021/05/23 08:58:37;;;;;;;3.17;0.60;;;;;;;18.14;39.14;93050.58;1854860;76;21075;-76
2021/05/23 09:01:04;;;;;;;2.05;0.78;;;;;;;18.19;37.63;93058.85;1848291;76;21012;-78
2021/05/23 09:03:30;;;;;;;1.10;0.37;;;;;;;18.20;37.79;93063.13;1848072;76;21103;-76
2021/05/23 09:05:56;;;;;;;2.67;1.35;;;;;;;18.24;37.64;93067.13;1865022;76;21060;-76
2021/05/23 09:08:27;;;;;;;8.23;3.33;;;;;;;18.24;38.32;93070.66;1850272;76;21059;-77
2021/05/23 09:10:59;;;;;;;2.58;0.93;;;;;;;18.24;38.04;93097.39;1848418;77;21083;-80
2021/05/23 09:13:35;;;;;;;1.87;0.75;;;;;;;18.01;36.90;93091.16;1855571;75;21411;-77
2021/05/23 09:16:06;;;;;;;2.90;0.90;;;;;;;17.73;37.40;93092.97;1860962;76;21047;-76
2021/05/23 09:18:53;;;;;;;0.53;0.42;;;;;;;17.55;39.03;93099.71;1844992;77;21028;-75
2021/05/23 09:21:26;;;;;;;0.50;0.50;;;;;;;17.47;38.81;93090.34;1847116;77;21604;-74
2021/05/23 09:23:58;;;;;;;1.12;0.65;;;;;;;17.50;39.49;93092.81;1856314;77;21173;-74
2021/05/23 09:26:27;;;;;;;0.75;0.42;;;;;;;17.57;38.64;93091.80;1860138;76;21123;-73
2021/05/23 09:28:55;;;;;;;1.35;0.60;;;;;;;17.62;38.50;93102.20;1853219;76;21063;-77
2021/05/23 09:31:23;;;;;;;0.40;0.40;;;;;;;17.67;39.02;93105.75;1845409;77;21055;-76
2021/05/23 09:33:52;;;;;;;2.85;0.40;;;;;;;17.68;38.58;93104.55;1849185;76;21646;-79
2021/05/23 09:36:21;;;;;;;0.78;0.78;;;;;;;17.70;38.44;93106.99;1862977;76;21057;-76
2021/05/23 09:39:03;;;;;;;0.98;0.45;;;;;;;17.70;38.51;93109.74;1863743;76;21095;-77
2021/05/23 09:41:33;;;;;;;0.30;0.30;;;;;;;17.68;38.27;93104.55;1863669;76;22416;-74
2021/05/23 09:44:23;;;;;;;2.62;0.45;;;;;;;17.68;38.33;93098.44;1853739;76;21036;-76
2021/05/23 09:47:05;;;;;;;0.85;0.60;;;;;;;17.73;37.67;93098.47;1829754;77;21141;-81
2021/05/23 09:49:40;;;;;;;1.30;1.17;;;;;;;17.75;36.35;93108.42;1816614;78;21108;-76
2021/05/23 09:52:04;;;;;;;1.90;1.30;;;;;;;17.63;36.92;93100.98;1829939;75;21397;-76
2021/05/23 09:54:41;;;;;;;0.40;0.40;;;;;;;17.56;38.26;93112.23;1846162;77;21430;-75
2021/05/23 09:57:17;;;;;;;1.55;0.60;;;;;;;17.50;36.83;93112.05;1864790;76;21088;-81
2021/05/23 09:59:43;;;;;;;2.10;0.50;;;;;;;17.44;38.24;93122.83;1849549;76;21198;-79
2021/05/23 10:02:12;;;;;;;0.33;0.30;;;;;;;17.30;37.13;93110.98;1844723;77;21067;-76
2021/05/23 10:04:40;;;;;;;0.28;0.23;;;;;;;17.14;37.77;93114.64;1854105;75;20869;-75
2021/05/23 10:07:12;;;;;;;0.90;0.30;;;;;;;17.07;37.65;93105.88;1862778;76;21043;-76
2021/05/23 10:09:40;;;;;;;1.10;0.75;;;;;;;17.04;38.83;93112.25;1847994;77;21496;-76
2021/05/23 10:12:11;;;;;;;0.60;0.60;;;;;;;17.03;38.21;93105.23;1854102;75;21193;-79
2021/05/23 10:14:38;;;;;;;0.60;0.50;;;;;;;16.94;38.83;93098.44;1847425;77;21421;-77
2021/05/23 10:17:07;;;;;;;0.37;0.37;;;;;;;16.87;38.01;93097.30;1853409;76;21087;-78
2021/05/23 10:19:34;;;;;;;0.72;0.50;;;;;;;16.87;40.46;93091.81;1858273;76;21098;-77
2021/05/23 10:22:04;;;;;;;4.05;0.60;;;;;;;16.88;39.58;93090.59;1847975;77;21048;-77
2021/05/23 10:24:46;;;;;;;1.98;0.30;;;;;;;16.83;38.92;93084.30;1847840;77;21672;-77
2021/05/23 10:27:16;;;;;;;1.00;0.42;;;;;;;16.73;39.03;93081.26;1864875;76;21156;-76
2021/05/23 10:29:45;;;;;;;1.77;0.57;;;;;;;16.65;39.58;93086.82;1851214;76;21056;-76
2021/05/23 10:32:16;;;;;;;0.62;0.50;;;;;;;16.61;39.50;93077.94;1846140;77;21090;-75
2021/05/23 10:34:46;;;;;;;0.50;0.50;;;;;;;16.63;38.88;93083.77;1851764;75;21099;-75
2021/05/23 10:37:15;;;;;;;1.62;0.33;;;;;;;16.60;37.77;93082.66;1864305;76;21313;-77
2021/05/23 10:39:49;;;;;;;1.10;0.47;;;;;;;16.49;38.91;93088.48;1863592;76;21048;-75
2021/05/23 10:42:13;;;;;;;1.55;0.88;;;;;;;16.45;40.38;93089.81;1864289;76;20969;-80
2021/05/23 10:44:43;;;;;;;1.40;0.33;;;;;;;16.43;39.93;93082.61;1852532;76;21044;-76
2021/05/23 10:47:28;;;;;;;0.45;0.45;;;;;;;16.32;38.97;93082.18;1849991;77;21118;-77
2021/05/23 10:50:02;;;;;;;0.82;0.40;;;;;;;16.18;38.82;93081.43;1852175;77;21069;-77
2021/05/23 10:52:31;;;;;;;0.37;0.30;;;;;;;15.97;38.66;93088.31;1854765;76;21090;-80
2021/05/23 10:57:46;;;;;;;2.30;0.55;;;;;;;15.29;40.25;93091.58;1806774;79;21169;-78
2021/05/23 11:00:21;;;;;;;0.60;0.60;;;;;;;14.92;41.83;93096.28;1827872;76;21056;-77
2021/05/23 11:02:48;;;;;;;;;;;;;;;14.65;42.73;93105.55;1866064;76;21712;-78
2021/05/23 11:05:28;;;;;;;1.65;0.68;;;;;;;14.47;43.43;93090.13;1856201;76;20246;-79
2021/05/23 11:07:59;;;;;;;1.50;0.60;;;;;;;14.30;44.38;93083.30;1847054;75;22451;-78
2021/05/23 11:10:42;;;;;;;0.95;0.50;;;;;;;14.22;46.31;93086.03;1848316;76;21122;-76
2021/05/23 11:15:49;;;;;;;1.22;0.50;;;;;;;14.09;46.78;93091.98;1813306;79;21227;-79
2021/05/23 11:18:26;;;;;;;3.22;0.50;;;;;;;14.02;47.46;93089.41;1846580;77;21037;-81
2021/05/23 11:21:06;;;;;;;0.72;0.68;;;;;;;13.94;47.96;93077.86;1863111;76;21375;-75
2021/05/23 11:23:57;;;;;;;0.35;0.35;;;;;;;13.84;47.28;93083.75;1854660;76;21098;-81
2021/05/23 11:26:25;;;;;;;0.40;0.40;;;;;;;13.77;48.08;93083.13;1847586;77;21110;-76
2021/05/23 11:28:55;;;;;;;1.85;0.53;;;;;;;13.70;48.09;93084.05;1851055;76;21084;-77
2021/05/23 11:31:36;;;;;;;2.95;0.70;;;;;;;13.69;48.71;93085.25;1865033;76;21072;-74
2021/05/23 11:34:04;;;;;;;2.50;0.75;;;;;;;13.69;48.98;93083.08;1846649;77;21451;-75
2021/05/23 11:36:37;;;;;;;2.98;0.57;;;;;;;13.69;50.15;93094.02;1854682;74;21056;-78
2021/05/23 11:39:08;;;;;;;0.70;0.47;;;;;;;13.67;50.52;93092.31;1826642;77;21375;-75
2021/05/23 11:41:41;;;;;;;0.45;0.45;;;;;;;13.61;50.89;93089.30;1829132;77;21606;-78
2021/05/23 11:44:13;;;;;;;1.57;0.65;;;;;;;13.51;51.22;93088.94;1836399;75;21059;-77
2021/05/23 11:46:38;;;;;;;0.93;0.50;;;;;;;13.46;51.97;93092.14;1848657;76;21036;-75
2021/05/23 11:49:05;;;;;;;0.42;0.40;;;;;;;13.43;52.87;93097.88;1865249;76;21049;-78
2021/05/23 11:51:33;;;;;;;0.80;0.70;;;;;;;13.42;54.54;93105.87;1848956;76;21293;-76